Time;durP1;ratioP1;P1;durP2;ratioP2;P2;SDS_P1;SDS_P2;PMS_P1;PMS_P2;Temp;Humidity;BMP_temperature;BMP_pressure;BME280_temperature;BME280_humidity;BME280_pressure;Samples;Min_cycle;Max_cycle;Signal;HPM_P1;HPM_P2
2022/08/28 00:01:03;;;;;;;7.23;2.40;;;18.10;99.90;;;;;;5069120;28;20189;-38
2022/08/28 00:03:29;;;;;;;5.70;2.60;;;18.00;99.90;;;;;;5052798;28;20189;-38
2022/08/28 00:05:55;;;;;;;6.97;3.40;;;18.00;99.90;;;;;;5053105;28;20608;-37
2022/08/28 00:08:21;;;;;;;4.97;2.97;;;17.90;99.90;;;;;;5071013;28;20197;-37
2022/08/28 00:10:47;;;;;;;4.03;2.40;;;18.00;99.90;;;;;;5071308;28;20837;-38
2022/08/28 00:13:17;;;;;;;3.80;2.60;;;18.00;99.90;;;;;;5071512;28;20439;-37
2022/08/28 00:15:45;;;;;;;4.40;3.10;;;17.90;99.90;;;;;;5069807;28;20434;-37
2022/08/28 00:18:11;;;;;;;5.90;3.60;;;17.80;99.90;;;;;;5070671;28;20782;-37
2022/08/28 00:20:37;;;;;;;5.20;3.10;;;17.70;99.90;;;;;;5071085;28;20430;-37
2022/08/28 00:23:05;;;;;;;7.50;3.00;;;17.60;99.90;;;;;;5069792;28;20938;-38
2022/08/28 00:25:32;;;;;;;4.93;3.00;;;17.60;99.90;;;;;;5071208;28;20427;-37
2022/08/28 00:28:01;;;;;;;6.33;2.87;;;17.60;99.90;;;;;;5070382;28;20506;-37
2022/08/28 00:30:34;;;;;;;7.07;3.30;;;17.60;99.90;;;;;;5070820;28;20458;-37
2022/08/28 00:33:06;;;;;;;4.73;2.87;;;17.60;99.90;;;;;;5070854;28;20936;-37
2022/08/28 00:35:32;;;;;;;6.63;3.00;;;17.60;99.90;;;;;;5070182;28;20419;-38
2022/08/28 00:37:59;;;;;;;5.67;3.27;;;17.60;99.90;;;;;;5062402;28;20424;-38
2022/08/28 00:40:27;;;;;;;7.03;3.00;;;17.50;99.90;;;;;;5070995;28;20419;-37
2022/08/28 00:42:54;;;;;;;6.30;3.23;;;17.50;99.90;;;;;;5070517;28;20434;-39
2022/08/28 00:45:22;;;;;;;8.10;3.07;;;17.50;99.90;;;;;;5071102;28;20771;-37
2022/08/28 00:47:48;;;;;;;5.73;3.10;;;17.50;99.90;;;;;;5069723;28;20510;-37
2022/08/28 00:50:17;;;;;;;5.97;3.40;;;17.50;99.90;;;;;;5070887;28;20489;-37
2022/08/28 00:52:49;;;;;;;6.13;3.50;;;17.50;99.90;;;;;;5055816;28;20463;-37
2022/08/28 00:55:19;;;;;;;7.40;3.33;;;17.50;99.90;;;;;;5070349;28;20422;-37
2022/08/28 00:57:52;;;;;;;8.30;3.80;;;17.40;99.90;;;;;;5068256;28;20506;-37
2022/08/28 01:00:23;;;;;;;8.50;4.87;;;17.40;99.90;;;;;;5070516;28;20427;-37
2022/08/28 01:02:50;;;;;;;5.37;2.77;;;17.30;99.90;;;;;;5070082;28;20488;-38
2022/08/28 01:05:17;;;;;;;6.43;3.50;;;17.40;99.90;;;;;;5070250;28;20451;-37
2022/08/28 01:07:43;;;;;;;7.43;4.60;;;17.30;99.90;;;;;;5069342;28;20479;-37
2022/08/28 01:10:13;;;;;;;6.87;3.17;;;17.40;99.90;;;;;;5070520;28;20791;-37
2022/08/28 01:12:39;;;;;;;9.00;4.33;;;17.50;99.90;;;;;;5070165;28;20838;-37
2022/08/28 01:15:10;;;;;;;10.90;4.70;;;17.40;99.90;;;;;;5070059;28;20472;-38
2022/08/28 01:17:40;;;;;;;8.10;4.10;;;17.40;99.90;;;;;;5069431;28;21150;-37
2022/08/28 01:20:15;;;;;;;11.87;4.07;;;17.20;99.90;;;;;;5070132;28;21007;-37
2022/08/28 01:22:50;;;;;;;14.20;4.27;;;17.20;99.90;;;;;;5044011;28;20964;-38
2022/08/28 01:25:20;;;;;;;6.63;3.57;;;17.10;99.90;;;;;;5070056;28;20419;-38
2022/08/28 01:27:46;;;;;;;5.00;3.13;;;17.10;99.90;;;;;;5069380;28;20494;-37
2022/08/28 01:30:15;;;;;;;14.40;4.50;;;17.00;99.90;;;;;;5069934;28;20431;-37
2022/08/28 01:32:46;;;;;;;8.77;4.17;;;16.90;99.90;;;;;;5069683;28;20793;-36
2022/08/28 01:35:17;;;;;;;7.43;3.70;;;16.90;99.90;;;;;;5069913;28;20493;-38
2022/08/28 01:37:43;;;;;;;9.93;3.83;;;16.80;99.90;;;;;;5048706;28;20531;-37
2022/08/28 01:40:11;;;;;;;5.57;4.10;;;16.80;99.90;;;;;;5048419;28;20527;-37
2022/08/28 01:42:41;;;;;;;9.73;4.03;;;16.80;99.90;;;;;;5048472;28;20549;-37
2022/08/28 01:45:10;;;;;;;7.47;4.70;;;16.80;99.90;;;;;;5049609;28;20432;-38
2022/08/28 01:47:37;;;;;;;8.00;3.83;;;16.70;99.90;;;;;;5049114;28;20464;-37
2022/08/28 01:50:05;;;;;;;7.47;4.40;;;16.60;99.90;;;;;;5048173;28;21041;-37
2022/08/28 01:52:32;;;;;;;7.53;3.53;;;16.50;99.90;;;;;;5049841;28;20768;-37
2022/08/28 01:54:58;;;;;;;7.30;3.43;;;16.50;99.90;;;;;;5049560;28;20432;-37
2022/08/28 01:57:24;;;;;;;9.60;4.23;;;16.50;99.90;;;;;;5047469;28;20428;-37
2022/08/28 01:59:53;;;;;;;9.63;4.60;;;16.40;99.90;;;;;;5045314;28;20663;-37
2022/08/28 02:02:18;;;;;;;10.40;3.83;;;16.50;99.90;;;;;;5049409;28;20503;-37
2022/08/28 02:04:44;;;;;;;8.57;4.10;;;16.40;99.90;;;;;;5049374;28;20495;-37
2022/08/28 02:07:10;;;;;;;8.27;3.93;;;16.40;99.90;;;;;;5048560;28;20217;-38
2022/08/28 02:09:36;;;;;;;5.80;3.87;;;16.40;99.90;;;;;;5049329;28;20412;-37
2022/08/28 02:12:02;;;;;;;8.70;4.37;;;16.30;99.90;;;;;;5049627;28;20342;-37
2022/08/28 02:14:28;;;;;;;8.07;4.10;;;16.30;99.90;;;;;;5049192;28;20193;-37
2022/08/28 02:16:55;;;;;;;9.33;4.27;;;16.30;99.90;;;;;;5048609;28;20432;-37
2022/08/28 02:19:21;;;;;;;7.80;4.00;;;16.20;99.90;;;;;;5054483;28;20484;-37
2022/08/28 02:21:48;;;;;;;7.17;4.03;;;16.20;99.90;;;;;;5056230;28;20412;-39
2022/08/28 02:24:15;;;;;;;5.70;3.60;;;16.30;99.90;;;;;;5049306;28;20926;-38
2022/08/28 02:26:43;;;;;;;7.20;3.90;;;16.30;99.90;;;;;;5048574;28;20448;-38
2022/08/28 02:29:10;;;;;;;5.70;3.50;;;16.30;99.90;;;;;;5049105;28;20444;-37
2022/08/28 02:31:36;;;;;;;9.83;3.30;;;16.20;99.90;;;;;;5049076;28;20511;-37
2022/08/28 02:34:03;;;;;;;7.90;3.50;;;16.20;99.90;;;;;;5049552;28;20786;-37
2022/08/28 02:36:29;;;;;;;10.10;4.57;;;16.20;99.90;;;;;;5049119;28;20469;-38
2022/08/28 02:38:54;;;;;;;5.87;3.87;;;16.10;99.90;;;;;;5046296;28;20417;-37
2022/08/28 02:41:20;;;;;;;9.93;4.20;;;16.00;99.90;;;;;;5048975;28;20182;-37
2022/08/28 02:43:46;;;;;;;9.50;4.50;;;16.00;99.90;;;;;;5048839;28;20229;-37
2022/08/28 02:46:11;;;;;;;10.00;5.17;;;15.90;99.90;;;;;;5048767;28;20695;-37
2022/08/28 02:48:39;;;;;;;10.27;4.70;;;15.80;99.90;;;;;;5047509;28;20208;-37
2022/08/28 02:51:08;;;;;;;8.73;4.13;;;15.80;99.90;;;;;;5051350;28;20185;-38
2022/08/28 02:53:34;;;;;;;7.20;4.03;;;15.80;99.90;;;;;;5041602;28;20996;-37
2022/08/28 02:56:01;;;;;;;6.53;4.27;;;15.70;99.90;;;;;;5051740;28;20416;-37
2022/08/28 02:58:31;;;;;;;7.60;4.40;;;15.70;99.90;;;;;;5052219;28;20421;-38
2022/08/28 03:00:59;;;;;;;8.97;4.20;;;15.70;99.90;;;;;;5052754;28;20474;-38
2022/08/28 03:03:26;;;;;;;7.50;3.87;;;15.60;99.90;;;;;;5052621;28;20428;-38
2022/08/28 03:05:52;;;;;;;7.33;4.23;;;15.60;99.90;;;;;;5052412;28;20502;-37
2022/08/28 03:08:18;;;;;;;10.13;4.33;;;15.60;99.90;;;;;;5051973;28;20416;-37
2022/08/28 03:10:43;;;;;;;10.33;4.80;;;15.60;99.90;;;;;;5052320;28;20178;-37
2022/08/28 03:13:10;;;;;;;5.37;4.30;;;15.60;99.90;;;;;;5052400;28;20235;-37
2022/08/28 03:15:37;;;;;;;6.57;3.90;;;15.50;99.90;;;;;;5052639;28;20198;-37
2022/08/28 03:18:03;;;;;;;9.70;4.70;;;15.50;99.90;;;;;;5051667;28;20455;-37
2022/08/28 03:20:28;;;;;;;7.30;4.43;;;15.50;99.90;;;;;;5063451;28;20482;-38
2022/08/28 03:25:39;;;;;;;6.17;4.70;;;15.40;99.90;;;;;;5052452;28;20182;-38
2022/08/28 03:28:04;;;;;;;6.50;4.03;;;15.40;99.90;;;;;;5051532;28;20446;-37
2022/08/28 03:30:30;;;;;;;6.93;4.13;;;15.40;99.90;;;;;;5052546;28;20552;-37
2022/08/28 03:32:56;;;;;;;9.83;4.93;;;15.50;99.90;;;;;;5052064;28;20828;-37
2022/08/28 03:35:22;;;;;;;10.97;5.53;;;15.40;99.90;;;;;;5050839;28;20190;-38
2022/08/28 03:37:47;;;;;;;12.90;4.53;;;15.40;99.90;;;;;;5050930;28;20194;-37
2022/08/28 03:40:14;;;;;;;8.27;4.40;;;15.40;99.90;;;;;;5052167;28;20435;-37
2022/08/28 03:42:39;;;;;;;8.07;4.37;;;15.30;99.90;;;;;;5052194;28;20182;-37
2022/08/28 03:45:09;;;;;;;14.20;4.73;;;15.30;99.90;;;;;;5051684;28;20428;-37
2022/08/28 03:47:40;;;;;;;9.33;4.13;;;15.30;99.90;;;;;;5051282;28;20214;-37
2022/08/28 03:50:07;;;;;;;8.30;4.67;;;15.30;99.90;;;;;;5051945;28;20934;-37
2022/08/28 03:52:33;;;;;;;6.57;4.50;;;15.30;99.90;;;;;;5051585;28;20845;-39
2022/08/28 03:54:59;;;;;;;13.13;4.70;;;15.30;99.90;;;;;;5051958;28;20452;-38
2022/08/28 03:57:25;;;;;;;7.90;4.53;;;15.40;99.90;;;;;;5050290;28;20194;-38
2022/08/28 03:59:52;;;;;;;10.60;4.40;;;15.50;99.90;;;;;;5051201;28;20193;-38
2022/08/28 04:02:19;;;;;;;9.33;4.50;;;15.50;99.90;;;;;;5051733;28;20214;-38
2022/08/28 04:04:49;;;;;;;5.10;3.80;;;15.50;99.90;;;;;;5051476;28;20515;-37
2022/08/28 04:07:16;;;;;;;7.53;3.93;;;15.50;99.90;;;;;;5048103;28;20488;-37
2022/08/28 04:09:42;;;;;;;6.27;3.90;;;15.60;99.90;;;;;;5051240;28;20440;-37
2022/08/28 04:12:08;;;;;;;7.90;3.87;;;15.60;99.90;;;;;;5047920;28;20424;-37
2022/08/28 04:14:34;;;;;;;5.90;4.30;;;15.60;99.90;;;;;;5051278;28;20412;-38
2022/08/28 04:17:00;;;;;;;5.40;3.90;;;15.60;99.90;;;;;;5050579;28;20780;-37
2022/08/28 04:19:26;;;;;;;10.03;4.27;;;15.60;99.90;;;;;;5055462;28;20493;-37
2022/08/28 04:21:52;;;;;;;6.10;4.03;;;15.60;99.90;;;;;;5055981;28;20193;-37
2022/08/28 04:24:17;;;;;;;9.73;5.00;;;15.60;99.90;;;;;;5051241;28;20185;-37
2022/08/28 04:26:43;;;;;;;9.47;3.87;;;15.60;99.90;;;;;;5050446;28;20468;-37
2022/08/28 04:29:09;;;;;;;7.73;3.73;;;15.70;99.90;;;;;;5049919;28;20208;-37
2022/08/28 04:31:35;;;;;;;6.50;3.40;;;15.70;99.90;;;;;;5051050;28;20197;-37
2022/08/28 04:34:03;;;;;;;5.30;3.43;;;15.70;99.90;;;;;;5050805;28;20243;-37
2022/08/28 04:36:30;;;;;;;13.57;3.60;;;15.70;99.90;;;;;;5050945;28;20932;-38
2022/08/28 04:38:57;;;;;;;10.37;3.80;;;15.70;99.90;;;;;;5050474;28;20962;-37
2022/08/28 04:41:23;;;;;;;5.03;3.73;;;15.70;99.90;;;;;;5048545;28;20532;-38
2022/08/28 04:43:51;;;;;;;12.20;4.60;;;15.60;99.90;;;;;;5052396;28;20900;-38
2022/08/28 04:46:17;;;;;;;8.73;4.47;;;15.60;99.90;;;;;;5050597;28;20202;-37
2022/08/28 04:48:43;;;;;;;8.20;3.97;;;15.60;99.90;;;;;;5049797;28;21131;-38
2022/08/28 04:51:11;;;;;;;11.93;4.13;;;15.60;99.90;;;;;;5050796;28;20190;-37
2022/08/28 04:53:38;;;;;;;6.40;3.53;;;15.60;99.90;;;;;;5050691;28;21009;-37
2022/08/28 04:56:07;;;;;;;11.30;3.93;;;15.60;99.90;;;;;;5049693;28;20436;-37
2022/08/28 04:58:33;;;;;;;6.63;3.20;;;15.60;99.90;;;;;;5050112;28;20503;-37
2022/08/28 05:01:04;;;;;;;11.43;4.10;;;15.60;99.90;;;;;;5050355;28;20477;-37
2022/08/28 05:03:31;;;;;;;8.57;4.43;;;15.60;99.90;;;;;;5050588;28;20432;-37
2022/08/28 05:05:56;;;;;;;7.57;3.63;;;15.60;99.90;;;;;;5050077;28;20464;-37
2022/08/28 05:08:25;;;;;;;11.07;4.27;;;15.60;99.90;;;;;;5049785;28;20435;-37
2022/08/28 05:10:51;;;;;;;8.53;3.40;;;15.60;99.90;;;;;;5049520;28;20178;-37
2022/08/28 05:13:18;;;;;;;7.00;3.37;;;15.50;99.90;;;;;;5050251;28;20835;-37
2022/08/28 05:15:46;;;;;;;8.40;3.53;;;15.50;99.90;;;;;;5048784;28;20424;-37
2022/08/28 05:18:13;;;;;;;5.97;3.43;;;15.40;99.90;;;;;;5049376;28;20511;-37
2022/08/28 05:20:42;;;;;;;10.27;4.23;;;15.40;99.90;;;;;;5061969;28;21012;-37
2022/08/28 05:23:08;;;;;;;8.13;3.70;;;15.40;99.90;;;;;;5050023;28;20464;-37
2022/08/28 05:25:40;;;;;;;8.40;3.83;;;15.40;99.90;;;;;;5050161;28;20436;-37
2022/08/28 05:28:08;;;;;;;7.07;3.10;;;15.40;99.90;;;;;;5049300;28;21072;-37
2022/08/28 05:30:34;;;;;;;7.43;3.90;;;15.40;99.90;;;;;;5050044;28;20435;-37
2022/08/28 05:33:00;;;;;;;8.47;4.37;;;15.40;99.90;;;;;;5049769;28;21206;-38
2022/08/28 05:35:26;;;;;;;5.47;3.20;;;15.40;99.90;;;;;;5049893;28;20527;-40
2022/08/28 05:37:52;;;;;;;6.70;3.87;;;15.50;99.90;;;;;;5041572;28;20592;-37
2022/08/28 05:40:21;;;;;;;6.17;3.67;;;15.50;99.90;;;;;;5049968;28;20428;-37
2022/08/28 05:42:47;;;;;;;7.70;3.93;;;15.50;99.90;;;;;;5049515;28;20189;-37
2022/08/28 05:45:13;;;;;;;9.17;4.03;;;15.60;99.90;;;;;;5049847;28;20428;-37
2022/08/28 05:47:39;;;;;;;9.60;4.00;;;15.60;99.90;;;;;;5048913;28;20800;-37
2022/08/28 05:50:06;;;;;;;12.10;3.90;;;15.60;99.90;;;;;;5048485;28;20436;-38
2022/08/28 05:52:34;;;;;;;6.37;3.60;;;15.60;99.90;;;;;;5049595;28;20182;-38
2022/08/28 05:54:59;;;;;;;9.03;3.80;;;15.60;99.90;;;;;;5049641;28;20973;-38
2022/08/28 05:57:25;;;;;;;5.00;2.93;;;15.70;99.90;;;;;;5046532;28;20474;-37
2022/08/28 05:59:52;;;;;;;7.73;3.60;;;15.80;99.90;;;;;;5049481;28;20284;-37
2022/08/28 06:02:18;;;;;;;9.37;3.70;;;15.90;99.90;;;;;;5049790;28;20432;-38
2022/08/28 06:04:43;;;;;;;8.03;3.50;;;15.90;99.90;;;;;;5048418;28;20473;-38
2022/08/28 06:07:11;;;;;;;5.90;3.60;;;15.90;99.90;;;;;;5048689;28;20768;-37
2022/08/28 06:09:37;;;;;;;9.30;3.43;;;16.00;99.90;;;;;;5046779;28;20767;-37
2022/08/28 06:12:04;;;;;;;7.33;3.70;;;16.00;99.90;;;;;;5049195;28;20461;-37
2022/08/28 06:14:30;;;;;;;8.17;3.73;;;15.90;99.90;;;;;;5036410;28;20431;-37
2022/08/28 06:16:57;;;;;;;8.73;3.20;;;16.00;99.90;;;;;;5049008;28;20837;-37
2022/08/28 06:19:25;;;;;;;6.63;3.10;;;16.10;99.90;;;;;;5048854;28;20874;-37
2022/08/28 06:21:56;;;;;;;5.70;3.33;;;16.10;99.90;;;;;;5048175;28;20420;-37
2022/08/28 06:24:22;;;;;;;8.50;3.87;;;16.10;99.90;;;;;;5052066;28;20527;-37
2022/08/28 06:26:48;;;;;;;9.27;3.10;;;16.00;99.90;;;;;;5052884;28;20939;-37
2022/08/28 06:29:17;;;;;;;8.20;3.10;;;16.10;99.90;;;;;;5053287;28;20420;-37
2022/08/28 06:31:43;;;;;;;6.53;2.93;;;16.10;99.90;;;;;;5053341;28;20692;-37
2022/08/28 06:34:08;;;;;;;5.20;3.13;;;16.10;99.90;;;;;;5053119;28;20431;-37
2022/08/28 06:36:38;;;;;;;7.63;3.30;;;16.30;99.90;;;;;;5052689;28;20498;-37
2022/08/28 06:39:05;;;;;;;4.73;2.63;;;16.30;99.90;;;;;;5047486;28;20563;-37
2022/08/28 06:41:32;;;;;;;5.53;3.07;;;16.40;99.90;;;;;;5053096;28;20536;-38
2022/08/28 06:43:58;;;;;;;9.33;3.10;;;16.50;99.90;;;;;;5053167;28;20526;-37
2022/08/28 06:46:25;;;;;;;6.93;3.00;;;16.50;99.90;;;;;;5053013;28;20499;-37
2022/08/28 06:48:51;;;;;;;7.00;2.80;;;16.50;99.90;;;;;;5051174;28;20791;-37
2022/08/28 06:51:18;;;;;;;12.13;3.17;;;16.60;99.90;;;;;;5049766;28;20420;-38
2022/08/28 06:53:45;;;;;;;5.30;2.90;;;16.70;99.90;;;;;;5052776;28;20424;-37
2022/08/28 06:56:14;;;;;;;8.17;2.70;;;16.80;99.90;;;;;;5051759;28;20439;-39
2022/08/28 06:58:42;;;;;;;6.13;2.73;;;17.00;99.90;;;;;;5052264;28;20435;-37
2022/08/28 07:01:11;;;;;;;3.77;2.20;;;17.20;99.90;;;;;;5052734;28;20428;-36
2022/08/28 07:03:38;;;;;;;13.03;3.57;;;17.30;99.90;;;;;;5053060;28;20509;-37
2022/08/28 07:06:06;;;;;;;4.33;2.87;;;17.40;99.90;;;;;;5052297;28;20479;-37
2022/08/28 07:08:33;;;;;;;5.53;3.23;;;17.60;99.90;;;;;;5052137;28;20965;-37
2022/08/28 07:11:10;;;;;;;10.67;3.80;;;17.70;99.90;;;;;;5052512;28;20462;-39
2022/08/28 07:13:35;;;;;;;6.37;2.97;;;17.70;99.90;;;;;;5052673;28;20419;-37
2022/08/28 07:16:02;;;;;;;5.40;2.60;;;17.70;99.90;;;;;;5052358;28;20578;-37
2022/08/28 07:18:28;;;;;;;7.47;2.70;;;17.70;99.90;;;;;;5051754;28;20190;-37
2022/08/28 07:20:59;;;;;;;9.70;3.60;;;17.80;99.90;;;;;;5063915;28;20439;-37
2022/08/28 07:23:26;;;;;;;5.47;2.70;;;17.90;99.90;;;;;;5052519;28;20185;-37
2022/08/28 07:25:52;;;;;;;7.90;3.10;;;18.10;99.90;;;;;;5052349;28;20420;-37
2022/08/28 07:28:18;;;;;;;5.10;2.23;;;18.30;99.90;;;;;;5048862;28;20443;-38
2022/08/28 07:30:44;;;;;;;8.63;2.87;;;18.40;99.90;;;;;;5049983;28;20201;-37
2022/08/28 07:33:10;;;;;;;7.03;2.60;;;18.40;99.90;;;;;;5050600;28;21101;-38
2022/08/28 07:35:36;;;;;;;5.90;2.73;;;18.30;99.90;;;;;;5051916;28;20450;-38
2022/08/28 07:38:02;;;;;;;12.23;3.40;;;18.10;99.90;;;;;;5052077;28;20420;-38
2022/08/28 07:40:27;;;;;;;6.93;3.53;;;18.10;99.90;;;;;;5053959;28;20216;-37
2022/08/28 07:45:38;;;;;;;7.97;3.00;;;18.20;99.90;;;;;;5049328;28;20775;-37
2022/08/28 07:48:06;;;;;;;6.83;2.63;;;18.20;99.90;;;;;;5051908;28;20573;-38
2022/08/28 07:50:33;;;;;;;7.13;3.00;;;18.20;99.90;;;;;;5051640;28;20190;-37
2022/08/28 07:52:59;;;;;;;6.67;2.63;;;18.30;99.90;;;;;;5055372;28;20420;-37
2022/08/28 07:55:26;;;;;;;7.57;2.87;;;18.40;99.90;;;;;;5066267;28;20436;-37
2022/08/28 07:57:52;;;;;;;7.17;3.10;;;18.40;99.90;;;;;;5053948;28;20196;-37
2022/08/28 08:00:18;;;;;;;6.13;2.30;;;18.40;99.90;;;;;;5071658;28;20428;-39
2022/08/28 08:02:44;;;;;;;7.77;2.57;;;18.50;99.90;;;;;;5071536;28;20926;-38
2022/08/28 08:05:10;;;;;;;5.70;2.80;;;18.50;99.90;;;;;;5068883;28;20459;-37
2022/08/28 08:07:39;;;;;;;6.93;2.67;;;18.50;99.90;;;;;;5051103;28;20484;-37
2022/08/28 08:10:08;;;;;;;10.90;2.60;;;18.40;99.90;;;;;;5049597;28;20706;-37
2022/08/28 08:12:33;;;;;;;6.60;3.10;;;18.30;99.90;;;;;;5051078;28;20430;-37
2022/08/28 08:14:59;;;;;;;7.90;2.80;;;18.30;99.90;;;;;;5049625;28;20773;-37
2022/08/28 08:17:25;;;;;;;7.00;2.80;;;18.40;99.90;;;;;;5068753;28;20233;-38
2022/08/28 08:19:51;;;;;;;7.50;3.00;;;18.50;99.90;;;;;;5071369;28;20185;-37
2022/08/28 08:22:17;;;;;;;7.20;2.43;;;18.50;99.90;;;;;;5053272;28;20523;-37
2022/08/28 08:24:43;;;;;;;5.20;2.53;;;18.50;99.90;;;;;;5051302;28;20193;-37
2022/08/28 08:27:09;;;;;;;9.83;3.40;;;18.30;99.90;;;;;;5050510;28;20464;-37
2022/08/28 08:29:37;;;;;;;4.90;2.50;;;18.20;99.90;;;;;;5051034;28;20653;-38
2022/08/28 08:32:06;;;;;;;8.40;2.70;;;18.10;99.90;;;;;;5051078;28;20436;-38
2022/08/28 08:34:40;;;;;;;5.00;2.77;;;18.20;99.90;;;;;;5050645;28;20939;-37
2022/08/28 08:37:07;;;;;;;5.60;2.60;;;18.30;99.90;;;;;;5050060;28;20470;-37
2022/08/28 08:39:34;;;;;;;5.37;2.80;;;18.50;99.90;;;;;;5050887;28;20846;-37
2022/08/28 08:42:03;;;;;;;8.27;2.43;;;18.60;99.90;;;;;;5057431;28;20461;-37
2022/08/28 08:44:42;;;;;;;8.07;2.30;;;18.80;99.90;;;;;;5070894;28;20432;-37
2022/08/28 08:47:21;;;;;;;5.60;2.40;;;19.00;99.90;;;;;;5052495;28;20476;-37
2022/08/28 08:49:56;;;;;;;8.50;3.30;;;19.10;99.90;;;;;;5050677;28;20429;-38
2022/08/28 08:52:59;;;;;;;6.87;2.57;;;19.30;99.90;;;;;;5047323;28;20973;-37
2022/08/28 08:55:35;;;;;;;4.53;2.63;;;19.30;99.90;;;;;;5049626;28;20445;-37
2022/08/28 08:58:06;;;;;;;8.33;2.70;;;19.40;99.90;;;;;;5050072;28;20432;-37
2022/08/28 09:00:52;;;;;;;6.30;2.50;;;19.50;99.90;;;;;;5057288;28;20444;-37
2022/08/28 09:03:37;;;;;;;8.80;2.70;;;19.60;99.90;;;;;;5050809;28;20988;-37
2022/08/28 09:06:04;;;;;;;6.90;3.17;;;19.70;99.90;;;;;;5050648;28;20907;-38
2022/08/28 09:08:46;;;;;;;4.70;2.40;;;19.50;99.90;;;;;;5049424;28;20506;-39
2022/08/28 09:11:16;;;;;;;4.87;2.67;;;19.40;99.90;;;;;;5050402;28;20427;-38
2022/08/28 09:13:59;;;;;;;7.20;3.37;;;19.20;99.90;;;;;;5047804;28;20439;-37
2022/08/28 09:16:34;;;;;;;5.07;2.90;;;19.20;99.90;;;;;;5045805;28;20448;-37
2022/08/28 09:19:01;;;;;;;7.30;2.33;;;19.30;99.90;;;;;;5052377;28;20423;-37
2022/08/28 09:21:31;;;;;;;4.90;2.47;;;19.60;99.90;;;;;;5049865;28;20474;-37
2022/08/28 09:24:07;;;;;;;5.50;2.30;;;19.70;99.90;;;;;;5049872;28;20461;-37
2022/08/28 09:26:33;;;;;;;9.10;2.70;;;19.80;99.90;;;;;;5030220;28;20525;-37
2022/08/28 09:29:13;;;;;;;4.40;2.30;;;19.90;99.90;;;;;;5049840;28;20454;-37
2022/08/28 09:31:43;;;;;;;5.43;2.70;;;20.10;99.90;;;;;;5049783;28;20440;-37
2022/08/28 09:34:26;;;;;;;5.03;2.47;;;20.20;99.90;;;;;;5049838;28;20890;-37
2022/08/28 09:36:53;;;;;;;4.60;2.43;;;20.40;99.90;;;;;;5049275;28;20436;-36
2022/08/28 09:39:22;;;;;;;6.30;2.30;;;20.60;99.90;;;;;;5049839;28;20497;-36
2022/08/28 09:45:04;;;;;;;7.30;2.77;;;20.50;99.90;;;;;;5049673;28;20523;-37
2022/08/28 09:47:36;;;;;;;6.17;2.67;;;20.50;99.90;;;;;;5049000;28;20468;-37
2022/08/28 09:50:22;;;;;;;3.53;1.90;;;20.60;99.90;;;;;;5049565;28;20973;-36
2022/08/28 09:52:49;;;;;;;6.20;2.30;;;20.80;99.90;;;;;;5049343;28;20813;-37
2022/08/28 09:55:53;;;;;;;4.13;1.90;;;21.00;99.90;;;;;;5049763;28;20923;-37
2022/08/28 09:58:20;;;;;;;5.00;2.27;;;21.10;99.90;;;;;;5050516;28;20434;-37
2022/08/28 10:01:04;;;;;;;6.50;2.60;;;21.20;99.90;;;;;;5049792;28;20767;-37
2022/08/28 10:03:40;;;;;;;6.13;2.63;;;21.40;99.90;;;;;;5049885;28;20432;-37
2022/08/28 10:06:33;;;;;;;5.53;2.43;;;21.60;99.90;;;;;;5049631;28;20450;-37
2022/08/28 10:09:15;;;;;;;7.80;2.50;;;21.80;99.90;;;;;;5049447;28;20809;-37
2022/08/28 10:12:04;;;;;;;5.47;2.60;;;21.90;99.90;;;;;;5049340;28;20885;-37
2022/08/28 10:14:37;;;;;;;5.00;2.03;;;22.10;99.90;;;;;;5049822;28;20781;-37
2022/08/28 10:17:12;;;;;;;5.33;2.47;;;22.10;99.90;;;;;;5048913;28;20446;-38
2022/08/28 10:20:01;;;;;;;3.93;2.00;;;22.20;98.80;;;;;;5045568;28;20458;-39
2022/08/28 10:22:55;;;;;;;5.07;2.50;;;22.20;98.30;;;;;;5049201;28;20434;-37
2022/08/28 10:25:25;;;;;;;5.57;2.57;;;22.10;98.40;;;;;;5045873;28;20432;-38
2022/08/28 10:28:00;;;;;;;4.97;2.30;;;22.00;99.00;;;;;;5048751;28;20460;-37
2022/08/28 10:30:28;;;;;;;5.07;2.33;;;21.90;98.70;;;;;;5042574;28;20471;-38
2022/08/28 10:33:11;;;;;;;3.77;1.90;;;22.00;98.80;;;;;;5048015;28;20416;-37
2022/08/28 10:35:51;;;;;;;3.70;2.10;;;22.10;98.10;;;;;;5041419;28;20435;-36
2022/08/28 10:38:27;;;;;;;6.20;2.40;;;22.20;97.50;;;;;;5064557;28;20423;-37
2022/08/28 10:41:01;;;;;;;4.90;2.67;;;22.30;97.70;;;;;;5052422;28;20419;-37
2022/08/28 10:43:34;;;;;;;4.53;2.20;;;22.30;96.90;;;;;;5069240;28;20434;-37
2022/08/28 10:46:04;;;;;;;4.30;2.30;;;22.40;98.20;;;;;;5060098;28;20496;-37
2022/08/28 10:48:45;;;;;;;5.70;2.20;;;22.50;98.10;;;;;;5048824;28;20478;-37
2022/08/28 10:51:33;;;;;;;3.50;2.30;;;22.60;97.90;;;;;;5048981;28;20420;-38
2022/08/28 10:54:31;;;;;;;4.03;2.10;;;22.80;97.70;;;;;;5049219;28;20428;-37
2022/08/28 10:57:05;;;;;;;5.00;2.40;;;22.80;97.50;;;;;;5053348;28;20907;-38
2022/08/28 10:59:33;;;;;;;4.60;2.03;;;22.60;96.60;;;;;;5048195;28;20424;-37
2022/08/28 11:02:00;;;;;;;3.10;2.47;;;22.50;97.20;;;;;;5049157;28;20459;-37
2022/08/28 11:04:27;;;;;;;7.30;2.10;;;22.60;97.70;;;;;;5047745;28;20424;-37
2022/08/28 11:07:07;;;;;;;3.23;2.17;;;22.60;97.60;;;;;;5048393;28;21135;-37
2022/08/28 11:09:44;;;;;;;4.90;2.10;;;22.80;97.60;;;;;;5050317;28;20829;-37
2022/08/28 11:12:17;;;;;;;4.67;2.33;;;22.90;95.70;;;;;;5052595;28;20420;-38
2022/08/28 11:14:45;;;;;;;4.33;1.80;;;23.00;95.60;;;;;;5052918;28;20477;-37
2022/08/28 11:17:24;;;;;;;4.60;2.33;;;23.00;95.30;;;;;;5052171;28;20518;-37
2022/08/28 11:20:01;;;;;;;2.83;2.20;;;23.10;95.90;;;;;;5076949;28;20434;-37
2022/08/28 11:22:53;;;;;;;6.13;2.33;;;23.00;95.70;;;;;;5053799;28;20428;-37
2022/08/28 11:25:24;;;;;;;2.60;1.90;;;23.00;95.40;;;;;;5052978;28;20460;-37
2022/08/28 11:28:23;;;;;;;3.37;2.10;;;23.20;95.70;;;;;;5051763;28;20473;-38
2022/08/28 11:31:04;;;;;;;3.90;1.90;;;23.30;96.30;;;;;;5052142;28;20752;-37
2022/08/28 11:33:33;;;;;;;6.10;1.90;;;23.30;95.90;;;;;;5052266;28;20474;-37
2022/08/28 11:35:59;;;;;;;2.53;1.97;;;23.30;94.70;;;;;;5052451;28;20586;-37
2022/08/28 11:38:40;;;;;;;3.73;1.90;;;23.30;96.30;;;;;;5051691;28;20998;-37
2022/08/28 11:41:19;;;;;;;4.00;1.60;;;23.30;95.40;;;;;;5052256;28;20543;-37
2022/08/28 11:43:47;;;;;;;5.37;2.17;;;23.10;95.10;;;;;;5052115;28;20424;-37
2022/08/28 11:46:24;;;;;;;4.03;1.90;;;23.10;96.20;;;;;;5052207;28;20471;-37
2022/08/28 11:48:57;;;;;;;6.10;1.90;;;23.10;96.50;;;;;;5051544;28;20416;-37
2022/08/28 11:51:48;;;;;;;4.50;1.80;;;23.30;96.20;;;;;;5052086;28;20416;-37
2022/08/28 11:54:58;;;;;;;3.67;1.97;;;23.50;95.40;;;;;;5050788;28;20915;-37
2022/08/28 11:57:51;;;;;;;4.37;1.97;;;23.50;94.60;;;;;;5054176;28;20435;-37
2022/08/28 12:00:23;;;;;;;2.00;1.53;;;23.50;94.90;;;;;;5051967;28;20787;-38
2022/08/28 12:03:02;;;;;;;2.23;1.90;;;23.60;95.40;;;;;;5051705;28;20474;-38
2022/08/28 12:05:31;;;;;;;4.77;1.80;;;23.70;94.40;;;;;;5051695;28;20444;-37
2022/08/28 12:07:59;;;;;;;2.90;1.63;;;23.50;93.10;;;;;;5051132;28;20464;-37
2022/08/28 12:10:25;;;;;;;3.57;1.57;;;23.50;93.60;;;;;;5050243;28;20436;-37
2022/08/28 12:13:01;;;;;;;2.67;2.00;;;23.60;94.80;;;;;;5051644;28;20779;-38
2022/08/28 12:15:26;;;;;;;5.27;1.87;;;23.60;95.00;;;;;;5051695;28;20239;-38
2022/08/28 12:17:56;;;;;;;3.37;1.83;;;23.70;95.50;;;;;;5049661;28;20483;-38
2022/08/28 12:20:50;;;;;;;5.17;1.93;;;23.80;94.80;;;;;;5061327;28;20210;-37
2022/08/28 12:23:22;;;;;;;2.47;1.70;;;23.80;92.40;;;;;;5051634;28;20427;-37
2022/08/28 12:26:09;;;;;;;2.83;1.90;;;23.80;93.30;;;;;;5051364;28;20446;-36
2022/08/28 12:28:44;;;;;;;5.63;1.90;;;23.80;93.10;;;;;;5050484;28;20906;-37
2022/08/28 12:34:42;;;;;;;2.90;1.93;;;23.80;92.90;;;;;;5068327;28;20457;-37
2022/08/28 12:37:31;;;;;;;3.73;1.67;;;23.80;93.70;;;;;;5049276;28;20425;-39
2022/08/28 12:40:04;;;;;;;2.63;2.20;;;23.80;92.80;;;;;;5067566;28;20419;-37
2022/08/28 12:42:32;;;;;;;4.17;2.30;;;23.90;93.30;;;;;;5070956;28;20415;-37
2022/08/28 12:45:05;;;;;;;2.83;1.80;;;23.90;91.80;;;;;;5071016;28;21039;-37
2022/08/28 12:47:32;;;;;;;4.57;1.93;;;23.80;92.70;;;;;;5070107;28;20482;-37
2022/08/28 12:49:58;;;;;;;3.60;1.93;;;23.70;92.50;;;;;;5069385;28;20420;-37
2022/08/28 12:52:25;;;;;;;7.27;2.43;;;23.60;92.20;;;;;;5046330;28;20778;-37
2022/08/28 12:54:54;;;;;;;4.17;2.13;;;23.40;92.10;;;;;;5050372;28;20189;-37
2022/08/28 12:57:23;;;;;;;3.57;1.70;;;23.40;92.60;;;;;;5048527;28;20435;-37
2022/08/28 12:59:54;;;;;;;4.90;2.20;;;23.30;93.10;;;;;;5050896;28;21159;-37
2022/08/28 13:02:34;;;;;;;2.43;1.50;;;23.40;92.80;;;;;;5050596;28;20479;-37
2022/08/28 13:05:06;;;;;;;5.17;1.77;;;23.50;92.30;;;;;;5049423;28;20976;-38
2022/08/28 13:07:39;;;;;;;5.73;1.90;;;23.60;92.60;;;;;;5049798;28;20468;-38
2022/08/28 13:10:28;;;;;;;4.00;2.30;;;23.60;92.30;;;;;;5050743;28;20431;-38
2022/08/28 13:13:05;;;;;;;4.03;1.90;;;23.60;93.10;;;;;;5050110;28;20439;-37